sensor_id;sensor_type;location;lat;lon;timestamp;temperature;humidity
52211;DHT22;38179;52.756;6.906;2023-04-15T00:00:18;7.70;99.90
52211;DHT22;38179;52.756;6.906;2023-04-15T00:02:45;7.60;99.90
52211;DHT22;38179;52.756;6.906;2023-04-15T00:05:10;7.60;99.90
52211;DHT22;38179;52.756;6.906;2023-04-15T00:07:36;7.60;99.90
52211;DHT22;38179;52.756;6.906;2023-04-15T00:10:02;7.50;99.90
52211;DHT22;38179;52.756;6.906;2023-04-15T00:12:28;7.50;99.90
52211;DHT22;38179;52.756;6.906;2023-04-15T00:14:54;7.40;99.90
52211;DHT22;38179;52.756;6.906;2023-04-15T00:17:21;7.40;99.90
52211;DHT22;38179;52.756;6.906;2023-04-15T00:19:47;7.40;99.90
52211;DHT22;38179;52.756;6.906;2023-04-15T00:22:13;7.40;99.90
52211;DHT22;38179;52.756;6.906;2023-04-15T00:24:38;7.30;99.90
52211;DHT22;38179;52.756;6.906;2023-04-15T00:27:04;7.30;99.90
52211;DHT22;38179;52.756;6.906;2023-04-15T00:29:30;7.40;99.90
52211;DHT22;38179;52.756;6.906;2023-04-15T00:31:56;7.30;99.90
52211;DHT22;38179;52.756;6.906;2023-04-15T00:34:22;7.30;99.90
52211;DHT22;38179;52.756;6.906;2023-04-15T00:36:48;7.30;99.90
52211;DHT22;38179;52.756;6.906;2023-04-15T00:39:14;7.20;99.90
52211;DHT22;38179;52.756;6.906;2023-04-15T00:41:41;7.20;99.90
52211;DHT22;38179;52.756;6.906;2023-04-15T00:44:07;7.20;99.90
52211;DHT22;38179;52.756;6.906;2023-04-15T00:46:34;7.20;99.90
52211;DHT22;38179;52.756;6.906;2023-04-15T00:49:01;7.20;99.90
52211;DHT22;38179;52.756;6.906;2023-04-15T00:51:28;7.20;99.90
52211;DHT22;38179;52.756;6.906;2023-04-15T00:53:54;7.20;99.90
52211;DHT22;38179;52.756;6.906;2023-04-15T00:56:19;7.30;99.90
52211;DHT22;38179;52.756;6.906;2023-04-15T00:58:49;7.20;99.90
52211;DHT22;38179;52.756;6.906;2023-04-15T01:01:17;7.20;99.90
52211;DHT22;38179;52.756;6.906;2023-04-15T01:03:46;7.20;99.90
52211;DHT22;38179;52.756;6.906;2023-04-15T01:06:12;7.10;99.90
52211;DHT22;38179;52.756;6.906;2023-04-15T01:08:38;7.10;99.90
52211;DHT22;38179;52.756;6.906;2023-04-15T01:11:04;7.10;99.90
52211;DHT22;38179;52.756;6.906;2023-04-15T01:13:30;7.00;99.90
52211;DHT22;38179;52.756;6.906;2023-04-15T01:15:55;7.00;99.90
52211;DHT22;38179;52.756;6.906;2023-04-15T01:18:22;6.90;99.90
52211;DHT22;38179;52.756;6.906;2023-04-15T01:20:48;6.90;99.90
52211;DHT22;38179;52.756;6.906;2023-04-15T01:23:14;6.90;99.90
52211;DHT22;38179;52.756;6.906;2023-04-15T01:25:41;6.90;99.90
52211;DHT22;38179;52.756;6.906;2023-04-15T01:28:08;6.80;99.90
52211;DHT22;38179;52.756;6.906;2023-04-15T01:30:34;6.80;99.90
52211;DHT22;38179;52.756;6.906;2023-04-15T01:32:59;6.70;99.90
52211;DHT22;38179;52.756;6.906;2023-04-15T01:35:25;6.70;99.90
52211;DHT22;38179;52.756;6.906;2023-04-15T01:37:52;6.70;99.90
52211;DHT22;38179;52.756;6.906;2023-04-15T01:40:19;6.70;99.90
52211;DHT22;38179;52.756;6.906;2023-04-15T01:42:47;6.60;99.90
52211;DHT22;38179;52.756;6.906;2023-04-15T01:45:13;6.60;99.90
52211;DHT22;38179;52.756;6.906;2023-04-15T01:47:39;6.60;99.90
52211;DHT22;38179;52.756;6.906;2023-04-15T01:50:05;6.60;99.90
52211;DHT22;38179;52.756;6.906;2023-04-15T01:52:31;6.60;99.90
52211;DHT22;38179;52.756;6.906;2023-04-15T01:54:57;6.60;99.90
52211;DHT22;38179;52.756;6.906;2023-04-15T01:57:22;6.60;99.90
52211;DHT22;38179;52.756;6.906;2023-04-15T01:59:48;6.50;99.90
52211;DHT22;38179;52.756;6.906;2023-04-15T02:02:14;6.50;99.90
52211;DHT22;38179;52.756;6.906;2023-04-15T02:04:39;6.50;99.90
52211;DHT22;38179;52.756;6.906;2023-04-15T02:07:05;6.50;99.90
52211;DHT22;38179;52.756;6.906;2023-04-15T02:09:31;6.40;99.90
52211;DHT22;38179;52.756;6.906;2023-04-15T02:11:57;6.40;99.90
52211;DHT22;38179;52.756;6.906;2023-04-15T02:14:23;6.40;99.90
52211;DHT22;38179;52.756;6.906;2023-04-15T02:16:51;6.40;99.90
52211;DHT22;38179;52.756;6.906;2023-04-15T02:19:17;6.40;99.90
52211;DHT22;38179;52.756;6.906;2023-04-15T02:21:43;6.40;99.90
52211;DHT22;38179;52.756;6.906;2023-04-15T02:24:09;6.30;99.90
52211;DHT22;38179;52.756;6.906;2023-04-15T02:26:36;6.30;99.90
52211;DHT22;38179;52.756;6.906;2023-04-15T02:29:02;6.30;99.90
52211;DHT22;38179;52.756;6.906;2023-04-15T02:31:28;6.30;99.90
52211;DHT22;38179;52.756;6.906;2023-04-15T02:33:54;6.30;99.90
52211;DHT22;38179;52.756;6.906;2023-04-15T02:36:19;6.20;99.90
52211;DHT22;38179;52.756;6.906;2023-04-15T02:38:45;6.20;99.90
52211;DHT22;38179;52.756;6.906;2023-04-15T02:41:11;6.20;99.90
52211;DHT22;38179;52.756;6.906;2023-04-15T02:43:37;6.20;99.90
52211;DHT22;38179;52.756;6.906;2023-04-15T02:46:04;6.20;99.90
52211;DHT22;38179;52.756;6.906;2023-04-15T02:48:30;6.20;99.90
52211;DHT22;38179;52.756;6.906;2023-04-15T02:53:39;6.10;99.90
52211;DHT22;38179;52.756;6.906;2023-04-15T02:56:06;6.10;99.90
52211;DHT22;38179;52.756;6.906;2023-04-15T02:58:33;6.10;99.90
52211;DHT22;38179;52.756;6.906;2023-04-15T03:00:59;6.10;99.90
52211;DHT22;38179;52.756;6.906;2023-04-15T03:03:25;6.10;99.90
52211;DHT22;38179;52.756;6.906;2023-04-15T03:05:52;6.00;99.90
52211;DHT22;38179;52.756;6.906;2023-04-15T03:08:18;6.00;99.90
52211;DHT22;38179;52.756;6.906;2023-04-15T03:10:43;6.00;99.90
52211;DHT22;38179;52.756;6.906;2023-04-15T03:13:09;6.00;99.90
52211;DHT22;38179;52.756;6.906;2023-04-15T03:15:35;5.90;99.90
52211;DHT22;38179;52.756;6.906;2023-04-15T03:18:01;5.90;99.90
52211;DHT22;38179;52.756;6.906;2023-04-15T03:20:27;5.90;99.90
52211;DHT22;38179;52.756;6.906;2023-04-15T03:22:52;5.90;99.90
52211;DHT22;38179;52.756;6.906;2023-04-15T03:25:18;5.80;99.90
52211;DHT22;38179;52.756;6.906;2023-04-15T03:27:44;5.80;99.90
52211;DHT22;38179;52.756;6.906;2023-04-15T03:30:10;5.70;99.90
52211;DHT22;38179;52.756;6.906;2023-04-15T03:32:36;5.70;99.90
52211;DHT22;38179;52.756;6.906;2023-04-15T03:35:01;5.60;99.90
52211;DHT22;38179;52.756;6.906;2023-04-15T03:37:27;5.50;99.90
52211;DHT22;38179;52.756;6.906;2023-04-15T03:39:53;5.50;99.90
52211;DHT22;38179;52.756;6.906;2023-04-15T03:42:18;5.50;99.90
52211;DHT22;38179;52.756;6.906;2023-04-15T03:44:44;5.40;99.90
52211;DHT22;38179;52.756;6.906;2023-04-15T03:47:10;5.40;99.90
52211;DHT22;38179;52.756;6.906;2023-04-15T03:49:36;5.40;99.90
52211;DHT22;38179;52.756;6.906;2023-04-15T03:52:02;5.40;99.90
52211;DHT22;38179;52.756;6.906;2023-04-15T03:54:27;5.30;99.90
52211;DHT22;38179;52.756;6.906;2023-04-15T03:56:53;5.30;99.90
52211;DHT22;38179;52.756;6.906;2023-04-15T03:59:19;5.30;99.90
52211;DHT22;38179;52.756;6.906;2023-04-15T04:01:45;5.20;99.90
52211;DHT22;38179;52.756;6.906;2023-04-15T04:04:10;5.30;99.90
52211;DHT22;38179;52.756;6.906;2023-04-15T04:06:36;5.30;99.90
52211;DHT22;38179;52.756;6.906;2023-04-15T04:09:02;5.30;99.90
52211;DHT22;38179;52.756;6.906;2023-04-15T04:11:27;5.30;99.90
52211;DHT22;38179;52.756;6.906;2023-04-15T04:13:53;5.20;99.90
52211;DHT22;38179;52.756;6.906;2023-04-15T04:16:19;5.20;99.90
52211;DHT22;38179;52.756;6.906;2023-04-15T04:18:45;5.20;99.90
52211;DHT22;38179;52.756;6.906;2023-04-15T04:21:11;5.10;99.90
52211;DHT22;38179;52.756;6.906;2023-04-15T04:23:36;5.10;99.90
52211;DHT22;38179;52.756;6.906;2023-04-15T04:26:02;5.10;99.90
52211;DHT22;38179;52.756;6.906;2023-04-15T04:28:28;5.00;99.90
52211;DHT22;38179;52.756;6.906;2023-04-15T04:30:53;5.00;99.90
52211;DHT22;38179;52.756;6.906;2023-04-15T04:33:19;5.00;99.90
52211;DHT22;38179;52.756;6.906;2023-04-15T04:35:45;5.00;99.90
52211;DHT22;38179;52.756;6.906;2023-04-15T04:38:11;5.00;99.90
52211;DHT22;38179;52.756;6.906;2023-04-15T04:40:36;4.90;99.90
52211;DHT22;38179;52.756;6.906;2023-04-15T04:43:02;4.90;99.90
52211;DHT22;38179;52.756;6.906;2023-04-15T04:45:28;4.80;99.90
52211;DHT22;38179;52.756;6.906;2023-04-15T04:47:54;4.90;99.90
52211;DHT22;38179;52.756;6.906;2023-04-15T04:50:20;4.90;99.90
52211;DHT22;38179;52.756;6.906;2023-04-15T04:52:46;4.90;99.90
52211;DHT22;38179;52.756;6.906;2023-04-15T04:55:11;4.90;99.90
52211;DHT22;38179;52.756;6.906;2023-04-15T04:57:37;4.90;99.90
52211;DHT22;38179;52.756;6.906;2023-04-15T05:00:04;4.80;99.90
52211;DHT22;38179;52.756;6.906;2023-04-15T05:02:33;4.80;99.90
52211;DHT22;38179;52.756;6.906;2023-04-15T05:04:59;4.90;99.90
52211;DHT22;38179;52.756;6.906;2023-04-15T05:07:25;4.90;99.90
52211;DHT22;38179;52.756;6.906;2023-04-15T05:09:51;4.90;99.90
52211;DHT22;38179;52.756;6.906;2023-04-15T05:12:17;5.00;99.90
52211;DHT22;38179;52.756;6.906;2023-04-15T05:14:43;5.00;99.90
52211;DHT22;38179;52.756;6.906;2023-04-15T05:17:09;5.00;99.90
52211;DHT22;38179;52.756;6.906;2023-04-15T05:19:35;5.10;99.90
52211;DHT22;38179;52.756;6.906;2023-04-15T05:22:01;5.10;99.90
52211;DHT22;38179;52.756;6.906;2023-04-15T05:24:27;5.10;99.90
52211;DHT22;38179;52.756;6.906;2023-04-15T05:26:53;5.10;99.90
52211;DHT22;38179;52.756;6.906;2023-04-15T05:29:19;5.10;99.90
52211;DHT22;38179;52.756;6.906;2023-04-15T05:31:45;5.10;99.90
52211;DHT22;38179;52.756;6.906;2023-04-15T05:34:11;5.10;99.90
52211;DHT22;38179;52.756;6.906;2023-04-15T05:36:36;5.10;99.90
52211;DHT22;38179;52.756;6.906;2023-04-15T05:39:03;5.20;99.90
52211;DHT22;38179;52.756;6.906;2023-04-15T05:41:29;5.20;99.90
52211;DHT22;38179;52.756;6.906;2023-04-15T05:43:55;5.30;99.90
52211;DHT22;38179;52.756;6.906;2023-04-15T05:46:21;5.30;99.90
52211;DHT22;38179;52.756;6.906;2023-04-15T05:48:47;5.30;99.90
52211;DHT22;38179;52.756;6.906;2023-04-15T05:51:12;5.30;99.90
52211;DHT22;38179;52.756;6.906;2023-04-15T05:53:38;5.40;99.90
52211;DHT22;38179;52.756;6.906;2023-04-15T05:56:06;5.40;99.90
52211;DHT22;38179;52.756;6.906;2023-04-15T05:58:32;5.50;99.90
52211;DHT22;38179;52.756;6.906;2023-04-15T06:00:58;5.60;99.90
52211;DHT22;38179;52.756;6.906;2023-04-15T06:03:24;5.60;99.90
52211;DHT22;38179;52.756;6.906;2023-04-15T06:05:50;5.70;99.90
52211;DHT22;38179;52.756;6.906;2023-04-15T06:08:16;5.80;99.90
52211;DHT22;38179;52.756;6.906;2023-04-15T06:10:42;5.80;99.90
52211;DHT22;38179;52.756;6.906;2023-04-15T06:13:09;5.90;99.90
52211;DHT22;38179;52.756;6.906;2023-04-15T06:15:34;6.00;99.90
52211;DHT22;38179;52.756;6.906;2023-04-15T06:18:00;6.10;99.90
52211;DHT22;38179;52.756;6.906;2023-04-15T06:20:29;6.10;99.90
52211;DHT22;38179;52.756;6.906;2023-04-15T06:22:56;6.10;99.90
52211;DHT22;38179;52.756;6.906;2023-04-15T06:25:21;6.20;99.90
52211;DHT22;38179;52.756;6.906;2023-04-15T06:27:48;6.20;99.90
52211;DHT22;38179;52.756;6.906;2023-04-15T06:30:14;6.30;99.90
52211;DHT22;38179;52.756;6.906;2023-04-15T06:32:39;6.30;99.90
52211;DHT22;38179;52.756;6.906;2023-04-15T06:35:05;6.30;99.90
52211;DHT22;38179;52.756;6.906;2023-04-15T06:37:31;6.40;99.90
52211;DHT22;38179;52.756;6.906;2023-04-15T06:39:57;6.40;99.90
52211;DHT22;38179;52.756;6.906;2023-04-15T06:42:22;6.40;99.90
52211;DHT22;38179;52.756;6.906;2023-04-15T06:44:48;6.40;99.90
52211;DHT22;38179;52.756;6.906;2023-04-15T06:47:14;6.50;99.90
52211;DHT22;38179;52.756;6.906;2023-04-15T06:49:40;6.50;99.90
52211;DHT22;38179;52.756;6.906;2023-04-15T06:52:07;6.50;99.90
52211;DHT22;38179;52.756;6.906;2023-04-15T06:54:33;6.60;99.90
52211;DHT22;38179;52.756;6.906;2023-04-15T06:56:59;6.60;99.90
52211;DHT22;38179;52.756;6.906;2023-04-15T06:59:25;6.60;99.90
52211;DHT22;38179;52.756;6.906;2023-04-15T07:01:51;6.60;99.90
52211;DHT22;38179;52.756;6.906;2023-04-15T07:04:17;6.60;99.90
52211;DHT22;38179;52.756;6.906;2023-04-15T07:06:43;6.70;99.90
52211;DHT22;38179;52.756;6.906;2023-04-15T07:09:09;6.70;99.90
52211;DHT22;38179;52.756;6.906;2023-04-15T07:11:35;6.80;99.90
52211;DHT22;38179;52.756;6.906;2023-04-15T07:14:00;6.80;99.90
52211;DHT22;38179;52.756;6.906;2023-04-15T07:16:26;6.80;99.90
52211;DHT22;38179;52.756;6.906;2023-04-15T07:18:52;6.90;99.90
52211;DHT22;38179;52.756;6.906;2023-04-15T07:21:18;6.90;99.90
52211;DHT22;38179;52.756;6.906;2023-04-15T07:23:44;7.00;99.90
52211;DHT22;38179;52.756;6.906;2023-04-15T07:26:09;6.90;99.90
52211;DHT22;38179;52.756;6.906;2023-04-15T07:28:35;7.00;99.90
52211;DHT22;38179;52.756;6.906;2023-04-15T07:31:01;7.00;99.90
52211;DHT22;38179;52.756;6.906;2023-04-15T07:33:27;7.10;99.90
52211;DHT22;38179;52.756;6.906;2023-04-15T07:35:52;7.20;99.90
52211;DHT22;38179;52.756;6.906;2023-04-15T07:38:18;7.20;99.90
52211;DHT22;38179;52.756;6.906;2023-04-15T07:40:45;7.30;99.90
52211;DHT22;38179;52.756;6.906;2023-04-15T07:43:10;7.30;99.90
52211;DHT22;38179;52.756;6.906;2023-04-15T07:45:37;7.40;99.90
52211;DHT22;38179;52.756;6.906;2023-04-15T07:48:03;7.40;99.90
52211;DHT22;38179;52.756;6.906;2023-04-15T07:50:30;7.40;99.90
52211;DHT22;38179;52.756;6.906;2023-04-15T07:52:56;7.50;99.90
52211;DHT22;38179;52.756;6.906;2023-04-15T07:55:22;7.60;99.90
52211;DHT22;38179;52.756;6.906;2023-04-15T07:57:48;7.60;99.90
52211;DHT22;38179;52.756;6.906;2023-04-15T08:00:14;7.70;99.90
52211;DHT22;38179;52.756;6.906;2023-04-15T08:02:40;7.70;99.90
52211;DHT22;38179;52.756;6.906;2023-04-15T08:05:08;7.80;99.90
52211;DHT22;38179;52.756;6.906;2023-04-15T08:07:33;7.80;99.90
52211;DHT22;38179;52.756;6.906;2023-04-15T08:10:00;7.90;99.90
52211;DHT22;38179;52.756;6.906;2023-04-15T08:12:26;7.90;99.90
52211;DHT22;38179;52.756;6.906;2023-04-15T08:14:53;7.90;99.90
52211;DHT22;38179;52.756;6.906;2023-04-15T08:17:19;8.00;99.90
52211;DHT22;38179;52.756;6.906;2023-04-15T08:19:45;8.00;99.90
52211;DHT22;38179;52.756;6.906;2023-04-15T08:22:13;8.10;99.90
52211;DHT22;38179;52.756;6.906;2023-04-15T08:24:38;8.10;99.90
52211;DHT22;38179;52.756;6.906;2023-04-15T08:27:04;8.20;99.90
52211;DHT22;38179;52.756;6.906;2023-04-15T08:29:33;8.20;99.90
52211;DHT22;38179;52.756;6.906;2023-04-15T08:31:59;8.20;99.90
52211;DHT22;38179;52.756;6.906;2023-04-15T08:34:26;8.30;99.90
52211;DHT22;38179;52.756;6.906;2023-04-15T08:36:52;8.30;99.90
52211;DHT22;38179;52.756;6.906;2023-04-15T08:39:18;8.40;99.90
52211;DHT22;38179;52.756;6.906;2023-04-15T08:41:45;8.40;99.90
52211;DHT22;38179;52.756;6.906;2023-04-15T08:44:12;8.50;99.90
52211;DHT22;38179;52.756;6.906;2023-04-15T08:46:38;8.50;99.90
52211;DHT22;38179;52.756;6.906;2023-04-15T08:49:09;8.50;99.90
52211;DHT22;38179;52.756;6.906;2023-04-15T08:51:34;8.60;99.90
52211;DHT22;38179;52.756;6.906;2023-04-15T08:54:01;8.60;99.90
52211;DHT22;38179;52.756;6.906;2023-04-15T08:56:26;8.60;99.90
52211;DHT22;38179;52.756;6.906;2023-04-15T08:58:52;8.70;99.90
52211;DHT22;38179;52.756;6.906;2023-04-15T09:01:18;8.70;99.90
52211;DHT22;38179;52.756;6.906;2023-04-15T09:03:44;8.70;99.90
52211;DHT22;38179;52.756;6.906;2023-04-15T09:06:10;8.80;99.90
52211;DHT22;38179;52.756;6.906;2023-04-15T09:08:36;8.80;99.90
52211;DHT22;38179;52.756;6.906;2023-04-15T09:11:01;8.80;99.90
52211;DHT22;38179;52.756;6.906;2023-04-15T09:13:27;8.80;99.90
52211;DHT22;38179;52.756;6.906;2023-04-15T09:15:54;8.70;99.90
52211;DHT22;38179;52.756;6.906;2023-04-15T09:18:27;8.70;99.90
52211;DHT22;38179;52.756;6.906;2023-04-15T09:20:54;8.70;99.90
52211;DHT22;38179;52.756;6.906;2023-04-15T09:23:20;8.80;99.90
52211;DHT22;38179;52.756;6.906;2023-04-15T09:25:46;8.80;99.90
52211;DHT22;38179;52.756;6.906;2023-04-15T09:28:13;8.80;99.90
52211;DHT22;38179;52.756;6.906;2023-04-15T09:30:41;8.80;99.90
52211;DHT22;38179;52.756;6.906;2023-04-15T09:33:10;8.80;99.90
52211;DHT22;38179;52.756;6.906;2023-04-15T09:35:38;8.80;99.90
52211;DHT22;38179;52.756;6.906;2023-04-15T09:38:05;8.80;99.90
52211;DHT22;38179;52.756;6.906;2023-04-15T09:43:00;8.80;99.90
52211;DHT22;38179;52.756;6.906;2023-04-15T09:45:27;8.90;99.90
52211;DHT22;38179;52.756;6.906;2023-04-15T09:47:53;8.90;99.90
52211;DHT22;38179;52.756;6.906;2023-04-15T09:50:19;8.90;99.90
52211;DHT22;38179;52.756;6.906;2023-04-15T09:52:45;9.00;99.90
52211;DHT22;38179;52.756;6.906;2023-04-15T09:55:11;9.10;99.90
52211;DHT22;38179;52.756;6.906;2023-04-15T09:57:37;9.10;99.90
52211;DHT22;38179;52.756;6.906;2023-04-15T10:00:06;9.10;99.90
52211;DHT22;38179;52.756;6.906;2023-04-15T10:02:36;9.10;99.90
52211;DHT22;38179;52.756;6.906;2023-04-15T10:05:01;9.10;99.90
52211;DHT22;38179;52.756;6.906;2023-04-15T10:07:27;9.10;99.90
52211;DHT22;38179;52.756;6.906;2023-04-15T10:09:53;9.10;99.90
52211;DHT22;38179;52.756;6.906;2023-04-15T10:12:19;9.10;99.90
52211;DHT22;38179;52.756;6.906;2023-04-15T10:14:52;9.20;99.90
52211;DHT22;38179;52.756;6.906;2023-04-15T10:17:21;9.20;99.90
52211;DHT22;38179;52.756;6.906;2023-04-15T10:19:47;9.20;99.90
52211;DHT22;38179;52.756;6.906;2023-04-15T10:22:14;9.20;99.90
52211;DHT22;38179;52.756;6.906;2023-04-15T10:24:39;9.10;99.90
52211;DHT22;38179;52.756;6.906;2023-04-15T10:27:05;9.10;99.90
52211;DHT22;38179;52.756;6.906;2023-04-15T10:29:31;9.20;99.90
52211;DHT22;38179;52.756;6.906;2023-04-15T10:31:57;9.20;99.90
52211;DHT22;38179;52.756;6.906;2023-04-15T10:34:23;9.20;99.90
52211;DHT22;38179;52.756;6.906;2023-04-15T10:36:50;9.20;99.90
52211;DHT22;38179;52.756;6.906;2023-04-15T10:42:16;9.20;99.90
52211;DHT22;38179;52.756;6.906;2023-04-15T10:44:44;9.20;99.90
52211;DHT22;38179;52.756;6.906;2023-04-15T10:47:10;9.20;99.90
52211;DHT22;38179;52.756;6.906;2023-04-15T10:49:44;9.20;99.90
52211;DHT22;38179;52.756;6.906;2023-04-15T10:52:10;9.10;99.90
52211;DHT22;38179;52.756;6.906;2023-04-15T10:54:36;9.10;99.90
52211;DHT22;38179;52.756;6.906;2023-04-15T10:59:30;9.10;99.90
52211;DHT22;38179;52.756;6.906;2023-04-15T11:01:59;9.10;99.90
52211;DHT22;38179;52.756;6.906;2023-04-15T11:07:09;9.10;99.90
52211;DHT22;38179;52.756;6.906;2023-04-15T11:09:35;9.10;99.90
52211;DHT22;38179;52.756;6.906;2023-04-15T11:14:37;9.10;99.90
52211;DHT22;38179;52.756;6.906;2023-04-15T11:17:03;9.10;99.90
52211;DHT22;38179;52.756;6.906;2023-04-15T11:19:36;9.10;99.90
52211;DHT22;38179;52.756;6.906;2023-04-15T11:22:06;9.10;99.90
52211;DHT22;38179;52.756;6.906;2023-04-15T11:24:31;9.10;99.90
52211;DHT22;38179;52.756;6.906;2023-04-15T11:26:57;9.10;99.90
52211;DHT22;38179;52.756;6.906;2023-04-15T11:29:30;9.20;99.90
52211;DHT22;38179;52.756;6.906;2023-04-15T11:32:08;9.20;99.90
52211;DHT22;38179;52.756;6.906;2023-04-15T11:34:35;9.20;99.90
52211;DHT22;38179;52.756;6.906;2023-04-15T11:37:04;9.10;99.90
52211;DHT22;38179;52.756;6.906;2023-04-15T11:39:31;9.20;99.90
52211;DHT22;38179;52.756;6.906;2023-04-15T11:41:56;9.20;99.90
52211;DHT22;38179;52.756;6.906;2023-04-15T11:44:22;9.20;99.90
52211;DHT22;38179;52.756;6.906;2023-04-15T11:46:48;9.20;99.90
52211;DHT22;38179;52.756;6.906;2023-04-15T11:49:29;9.30;99.90
52211;DHT22;38179;52.756;6.906;2023-04-15T11:51:59;9.30;99.90
52211;DHT22;38179;52.756;6.906;2023-04-15T11:54:25;9.30;99.90
52211;DHT22;38179;52.756;6.906;2023-04-15T11:56:51;9.30;99.90
52211;DHT22;38179;52.756;6.906;2023-04-15T11:59:18;9.30;99.90
52211;DHT22;38179;52.756;6.906;2023-04-15T12:01:43;9.30;99.90
52211;DHT22;38179;52.756;6.906;2023-04-15T12:04:14;9.30;99.90
52211;DHT22;38179;52.756;6.906;2023-04-15T12:06:42;9.30;99.90
52211;DHT22;38179;52.756;6.906;2023-04-15T12:11:49;9.40;99.90
52211;DHT22;38179;52.756;6.906;2023-04-15T12:14:30;9.40;99.90
52211;DHT22;38179;52.756;6.906;2023-04-15T12:16:57;9.40;99.90
52211;DHT22;38179;52.756;6.906;2023-04-15T12:21:58;9.50;99.90
52211;DHT22;38179;52.756;6.906;2023-04-15T12:24:24;9.50;99.90
52211;DHT22;38179;52.756;6.906;2023-04-15T12:26:54;9.50;99.90
52211;DHT22;38179;52.756;6.906;2023-04-15T12:29:24;9.50;99.90
52211;DHT22;38179;52.756;6.906;2023-04-15T12:31:53;9.50;99.90
52211;DHT22;38179;52.756;6.906;2023-04-15T12:34:52;9.50;99.90
52211;DHT22;38179;52.756;6.906;2023-04-15T12:37:11;9.50;99.90
52211;DHT22;38179;52.756;6.906;2023-04-15T12:39:39;9.50;99.90
52211;DHT22;38179;52.756;6.906;2023-04-15T12:42:05;9.40;99.90
52211;DHT22;38179;52.756;6.906;2023-04-15T12:44:31;9.40;99.90
52211;DHT22;38179;52.756;6.906;2023-04-15T12:46:57;9.30;99.90
52211;DHT22;38179;52.756;6.906;2023-04-15T12:49:24;9.30;99.90
52211;DHT22;38179;52.756;6.906;2023-04-15T12:51:55;9.30;99.90
52211;DHT22;38179;52.756;6.906;2023-04-15T12:54:21;9.30;99.90
52211;DHT22;38179;52.756;6.906;2023-04-15T12:56:47;9.20;99.90
52211;DHT22;38179;52.756;6.906;2023-04-15T12:59:14;9.20;99.90
52211;DHT22;38179;52.756;6.906;2023-04-15T13:01:41;9.10;99.90
52211;DHT22;38179;52.756;6.906;2023-04-15T13:04:07;9.10;99.90
52211;DHT22;38179;52.756;6.906;2023-04-15T13:06:33;9.10;99.90
52211;DHT22;38179;52.756;6.906;2023-04-15T13:08:59;9.10;99.90
52211;DHT22;38179;52.756;6.906;2023-04-15T13:11:26;9.00;99.90
52211;DHT22;38179;52.756;6.906;2023-04-15T13:13:53;9.00;99.90
52211;DHT22;38179;52.756;6.906;2023-04-15T13:16:20;9.00;99.90
52211;DHT22;38179;52.756;6.906;2023-04-15T13:18:47;9.00;99.90
52211;DHT22;38179;52.756;6.906;2023-04-15T13:21:12;9.00;99.90
52211;DHT22;38179;52.756;6.906;2023-04-15T13:23:40;9.00;99.90
52211;DHT22;38179;52.756;6.906;2023-04-15T13:26:06;9.00;99.90
52211;DHT22;38179;52.756;6.906;2023-04-15T13:28:32;9.00;99.90
52211;DHT22;38179;52.756;6.906;2023-04-15T13:30:58;8.90;99.90
52211;DHT22;38179;52.756;6.906;2023-04-15T13:33:25;9.00;99.90
52211;DHT22;38179;52.756;6.906;2023-04-15T13:35:51;8.90;99.90
52211;DHT22;38179;52.756;6.906;2023-04-15T13:38:16;8.90;99.90
52211;DHT22;38179;52.756;6.906;2023-04-15T13:40:42;8.90;99.90
52211;DHT22;38179;52.756;6.906;2023-04-15T13:43:08;8.90;99.90
52211;DHT22;38179;52.756;6.906;2023-04-15T13:45:34;8.90;99.90
52211;DHT22;38179;52.756;6.906;2023-04-15T13:47:59;8.90;99.90
52211;DHT22;38179;52.756;6.906;2023-04-15T13:50:26;8.90;99.90
52211;DHT22;38179;52.756;6.906;2023-04-15T13:52:51;8.90;99.90
52211;DHT22;38179;52.756;6.906;2023-04-15T13:55:17;8.90;99.90
52211;DHT22;38179;52.756;6.906;2023-04-15T13:57:43;8.90;99.90
52211;DHT22;38179;52.756;6.906;2023-04-15T14:00:09;8.90;99.90
52211;DHT22;38179;52.756;6.906;2023-04-15T14:02:35;8.90;99.90
52211;DHT22;38179;52.756;6.906;2023-04-15T14:05:01;8.90;99.90
52211;DHT22;38179;52.756;6.906;2023-04-15T14:07:27;8.90;99.90
52211;DHT22;38179;52.756;6.906;2023-04-15T14:09:53;8.80;99.90
52211;DHT22;38179;52.756;6.906;2023-04-15T14:12:19;8.80;99.90
52211;DHT22;38179;52.756;6.906;2023-04-15T14:14:45;8.80;99.90
52211;DHT22;38179;52.756;6.906;2023-04-15T14:17:10;8.80;99.90
52211;DHT22;38179;52.756;6.906;2023-04-15T14:19:39;8.80;99.90
52211;DHT22;38179;52.756;6.906;2023-04-15T14:22:05;8.70;99.90
52211;DHT22;38179;52.756;6.906;2023-04-15T14:24:30;8.80;99.90
52211;DHT22;38179;52.756;6.906;2023-04-15T14:26:57;8.70;99.90
52211;DHT22;38179;52.756;6.906;2023-04-15T14:29:23;8.70;99.90
52211;DHT22;38179;52.756;6.906;2023-04-15T14:31:49;8.70;99.90
52211;DHT22;38179;52.756;6.906;2023-04-15T14:34:15;8.70;99.90
52211;DHT22;38179;52.756;6.906;2023-04-15T14:36:41;8.70;99.90
52211;DHT22;38179;52.756;6.906;2023-04-15T14:39:07;8.60;99.90
52211;DHT22;38179;52.756;6.906;2023-04-15T14:41:33;8.60;99.90
52211;DHT22;38179;52.756;6.906;2023-04-15T14:43:59;8.60;99.90
52211;DHT22;38179;52.756;6.906;2023-04-15T14:46:25;8.60;99.90
52211;DHT22;38179;52.756;6.906;2023-04-15T14:48:51;8.50;99.90
52211;DHT22;38179;52.756;6.906;2023-04-15T14:51:17;8.50;99.90
52211;DHT22;38179;52.756;6.906;2023-04-15T14:53:43;8.50;99.90
52211;DHT22;38179;52.756;6.906;2023-04-15T14:56:09;8.50;99.90
52211;DHT22;38179;52.756;6.906;2023-04-15T14:58:34;8.50;99.90
52211;DHT22;38179;52.756;6.906;2023-04-15T15:01:00;8.50;99.90
52211;DHT22;38179;52.756;6.906;2023-04-15T15:03:27;8.50;99.90
52211;DHT22;38179;52.756;6.906;2023-04-15T15:05:53;8.40;99.90
52211;DHT22;38179;52.756;6.906;2023-04-15T15:08:19;8.50;99.90
52211;DHT22;38179;52.756;6.906;2023-04-15T15:10:45;8.50;99.90
52211;DHT22;38179;52.756;6.906;2023-04-15T15:13:11;8.40;99.90
52211;DHT22;38179;52.756;6.906;2023-04-15T15:15:39;8.40;99.90
52211;DHT22;38179;52.756;6.906;2023-04-15T15:18:05;8.40;99.90
52211;DHT22;38179;52.756;6.906;2023-04-15T15:20:31;8.40;99.90
52211;DHT22;38179;52.756;6.906;2023-04-15T15:22:57;8.40;99.90
52211;DHT22;38179;52.756;6.906;2023-04-15T15:25:23;8.40;99.90
52211;DHT22;38179;52.756;6.906;2023-04-15T15:27:49;8.40;99.90
52211;DHT22;38179;52.756;6.906;2023-04-15T15:30:15;8.40;99.90
52211;DHT22;38179;52.756;6.906;2023-04-15T15:32:41;8.40;99.90
52211;DHT22;38179;52.756;6.906;2023-04-15T15:35:07;8.40;99.90
52211;DHT22;38179;52.756;6.906;2023-04-15T15:37:36;8.40;99.90
52211;DHT22;38179;52.756;6.906;2023-04-15T15:40:04;8.40;99.90
52211;DHT22;38179;52.756;6.906;2023-04-15T15:42:31;8.40;99.90
52211;DHT22;38179;52.756;6.906;2023-04-15T15:44:57;8.40;99.90
52211;DHT22;38179;52.756;6.906;2023-04-15T15:47:22;8.40;99.90
52211;DHT22;38179;52.756;6.906;2023-04-15T15:49:48;8.40;99.90
52211;DHT22;38179;52.756;6.906;2023-04-15T15:52:14;8.40;99.90
52211;DHT22;38179;52.756;6.906;2023-04-15T15:54:40;8.40;99.90
52211;DHT22;38179;52.756;6.906;2023-04-15T15:57:06;8.30;99.90
52211;DHT22;38179;52.756;6.906;2023-04-15T15:59:31;8.40;99.90